SASJ

Details ICAO SASJ (JUJ)
Name JUJUY
Region Argentina
Timezone America/Argentina/Jujuy (UTC-3.0)
Plans Departing 11
Arriving 25
Stats Elevation 3,019 ft / 920 m (AMSL)
Location -24.392737° -65.097833°
Runways 1
Magnetic Variation 8.073° W
Sunrise 2018-05-27 10:55:47 UTC / 2018-05-27 07:55:47 Local
Sunset 2018-05-27 21:42:14 UTC / 2018-05-27 18:42:14 Local
Advertisement - Login to hide

Runways

ID Width Length Bearing (true) Bearing (mag) Surface Threshold Offset Overrun Length
15 131 ft / 40 m 9,722 ft / 2,963 m 150.29° 158.36° Asphalt 0 ft / 0 m 100 ft / 30 m
33 131 ft / 40 m 9,722 ft / 2,963 m 330.28° 338.35° Asphalt 0 ft / 0 m 100 ft / 30 m

Approach Navaids

Runway Type Ident Frequency Range Bearing (true) Bearing (mag) Slope Elevation
33 Localiser JU 110.10 MHz 18 nm / 33 km 330.30° 338.37° - 3,019 ft / 920 m (AMSL)
33 Glidescope JU 110.10 MHz 10 nm / 19 km 330.29° 338.36° 3.00° 3,019 ft / 920 m (AMSL)

Map

Weather


0- 5 10 15 20 25 30 35+ Temperature / ° C

Clouds and Precipitation
Forecast for 2018-05-27 12:00 UTC. Updated an hour ago

Ground ~20,000 ft ~40,000 ft Winds

METAR

SASJ 271000Z 32007KT CAVOK 10/08 Q1014

TAF

TAF SASJ 270500Z 2706/2806 32005KT CAVOK TX24/2618Z TN10/2710Z PROB40 TEMPO 2708/2711 VRB02KT 5000 BR FEW015 SCT020 BECMG 2712/2416 07010KT 9999 SCT030

Frequencies

Tower 118.70 MHz TWR/APP
Tower 118.50 MHz TWR/APP
Warning: Do not use this data for real-world aviation or navigation. No guarantee of current accuracy is given.